Bear, Delaware
Current Conditions -  °F | °C
As of 9:51 PM on Thursday 27 Nov 2014 (Local Time) from KILG Reporting Station
Clear Clear  
Wind Chill: 25°   Ceiling: Unl
Heat Index: 33°   Visibility: 10mi
Dew Point: 28°   Wind: 9mph
Humidity: 82%   Direction: 280°W
Pressure: 30.13"   Gusts: NA
Location:  39.61°N, 75.69°W
Report Text: KILG 280251Z 28008KT 10SM CLR 01/M02 A3013 RMK AO2 SLP205 T00061022 51010
Loading
Personal Weather Stations






























Interactive Weather Map New forecast layout! Learn more

10-Day Weather Forecast

Advertisements
Track Severe Weather on mobile